createdAt,value
2019-03-23T00:01:26.572Z,24.40
2019-03-23T00:04:00.068Z,24.50
2019-03-23T00:06:38.006Z,24.50
2019-03-23T00:09:11.258Z,24.40
2019-03-23T00:11:53.820Z,24.60
2019-03-23T00:14:27.660Z,24.70
2019-03-23T00:17:00.682Z,24.80
2019-03-23T00:19:36.422Z,24.80
2019-03-23T00:22:09.542Z,24.90
2019-03-23T00:24:43.346Z,24.90
2019-03-23T00:27:16.458Z,24.90
2019-03-23T00:29:49.760Z,25.00
2019-03-23T00:32:22.628Z,25.00
2019-03-23T00:34:56.220Z,25.20
2019-03-23T00:37:29.741Z,25.20
2019-03-23T00:40:03.261Z,25.20
2019-03-23T00:42:36.315Z,25.30
2019-03-23T00:45:11.575Z,25.30
2019-03-23T00:47:44.563Z,25.30
2019-03-23T00:50:17.616Z,25.30
2019-03-23T00:52:51.445Z,25.30
2019-03-23T00:55:25.162Z,25.30
2019-03-23T00:57:58.094Z,25.40
2019-03-23T01:00:31.340Z,25.30
2019-03-23T01:03:04.504Z,25.40
2019-03-23T01:05:37.708Z,25.60
2019-03-23T01:08:13.029Z,25.80
2019-03-23T01:10:46.677Z,25.90
2019-03-23T01:13:19.591Z,25.90
2019-03-23T01:15:52.915Z,25.90
2019-03-23T01:18:26.020Z,25.80
2019-03-23T01:20:59.512Z,25.70
2019-03-23T01:23:33.044Z,25.90
2019-03-23T01:26:06.354Z,26.00
2019-03-23T01:28:39.084Z,26.20
2019-03-23T01:31:12.623Z,26.30
2019-03-23T01:33:45.723Z,26.30
2019-03-23T01:36:19.479Z,26.40
2019-03-23T01:38:53.134Z,26.50
2019-03-23T01:41:26.939Z,26.60
2019-03-23T01:44:00.171Z,26.70
2019-03-23T01:46:35.296Z,26.70
2019-03-23T01:49:08.518Z,26.80
2019-03-23T01:51:41.638Z,26.90
2019-03-23T01:54:14.730Z,26.80
2019-03-23T01:56:48.011Z,26.80
2019-03-23T01:59:21.509Z,27.10
2019-03-23T02:01:54.651Z,27.20
2019-03-23T02:04:27.926Z,27.30
2019-03-23T02:07:01.478Z,27.30
2019-03-23T02:09:34.615Z,27.40
2019-03-23T02:12:09.834Z,27.60
2019-03-23T02:14:42.805Z,27.70
2019-03-23T02:17:16.151Z,27.60
2019-03-23T02:19:49.224Z,27.70
2019-03-23T02:22:26.829Z,27.70
2019-03-23T02:24:59.771Z,27.70
2019-03-23T02:27:33.519Z,27.80
2019-03-23T02:30:06.550Z,27.90
2019-03-23T02:32:39.660Z,27.70
2019-03-23T02:35:12.765Z,27.80
2019-03-23T02:37:46.265Z,27.80
2019-03-23T02:40:19.197Z,27.90
2019-03-23T02:42:52.651Z,28.10
2019-03-23T02:45:25.807Z,28.00
2019-03-23T02:47:59.464Z,28.00
2019-03-23T02:50:32.586Z,27.90
2019-03-23T02:53:06.265Z,28.00
2019-03-23T02:55:59.097Z,28.20
2019-03-23T02:58:32.451Z,28.20
2019-03-23T03:01:05.396Z,28.20
2019-03-23T03:03:38.911Z,28.30
2019-03-23T03:06:11.871Z,28.40
2019-03-23T03:08:45.551Z,28.30
2019-03-23T03:11:18.852Z,28.30
2019-03-23T03:13:52.468Z,28.10
2019-03-23T03:16:25.915Z,28.00
2019-03-23T03:19:01.754Z,28.00
2019-03-23T03:21:34.766Z,27.90
2019-03-23T03:24:08.261Z,27.90
2019-03-23T03:26:41.259Z,28.00
2019-03-23T03:29:14.647Z,27.80
2019-03-23T03:31:47.698Z,27.90
2019-03-23T03:34:21.481Z,27.90
2019-03-23T03:36:54.699Z,27.80
2019-03-23T03:39:28.093Z,27.50
2019-03-23T03:42:02.122Z,27.70
2019-03-23T03:44:35.233Z,27.80
2019-03-23T03:47:08.704Z,28.00
2019-03-23T03:49:42.653Z,28.10
2019-03-23T03:52:15.762Z,28.00
2019-03-23T03:54:49.226Z,27.70
2019-03-23T03:57:41.794Z,27.40
2019-03-23T04:00:16.444Z,27.30
2019-03-23T04:02:50.527Z,27.10
2019-03-23T04:05:23.912Z,27.00
2019-03-23T04:08:09.977Z,27.00
2019-03-23T04:10:35.727Z,26.90
2019-03-23T04:13:13.012Z,26.80
2019-03-23T04:15:48.698Z,26.60
2019-03-23T04:18:29.573Z,26.60
2019-03-23T04:21:03.222Z,26.50
2019-03-23T04:23:35.340Z,26.40
2019-03-23T04:26:09.519Z,26.40
2019-03-23T04:28:43.547Z,26.30
2019-03-23T04:31:20.813Z,26.10
2019-03-23T04:33:55.056Z,26.10
2019-03-23T04:36:32.111Z,26.20
2019-03-23T04:39:06.396Z,26.10
2019-03-23T04:41:39.775Z,26.00
2019-03-23T04:44:13.169Z,26.00
2019-03-23T04:46:46.842Z,26.00
2019-03-23T04:49:20.123Z,25.90
2019-03-23T04:51:53.843Z,25.80
2019-03-23T04:54:30.719Z,25.70
2019-03-23T04:57:04.343Z,25.80
2019-03-23T04:59:37.086Z,25.90
2019-03-23T05:02:10.222Z,25.90
2019-03-23T05:04:43.210Z,25.80
2019-03-23T05:07:16.566Z,25.70
2019-03-23T05:09:50.125Z,25.60
2019-03-23T05:12:24.605Z,25.50
2019-03-23T05:14:57.690Z,25.50
2019-03-23T05:17:50.724Z,25.60
2019-03-23T05:20:31.221Z,25.50
2019-03-23T05:23:05.104Z,25.40
2019-03-23T05:25:38.131Z,25.40
2019-03-23T05:28:12.882Z,25.30
2019-03-23T05:30:45.958Z,25.30
2019-03-23T05:33:19.907Z,25.30
2019-03-23T05:35:54.254Z,25.20
2019-03-23T05:38:29.082Z,25.20
2019-03-23T05:41:06.113Z,25.20
2019-03-23T05:43:39.837Z,25.20
2019-03-23T05:46:12.836Z,25.20
2019-03-23T05:48:46.247Z,25.20
2019-03-23T05:51:19.371Z,25.20
2019-03-23T05:53:52.733Z,25.30
2019-03-23T05:56:25.835Z,25.20
2019-03-23T05:58:59.056Z,25.10
2019-03-23T06:01:32.396Z,25.10
2019-03-23T06:04:06.483Z,25.10
2019-03-23T06:06:40.343Z,25.20
2019-03-23T06:09:23.703Z,25.20
2019-03-23T06:11:57.435Z,25.20
2019-03-23T06:14:31.097Z,25.10
2019-03-23T06:17:05.145Z,25.10
2019-03-23T06:19:38.558Z,25.00
2019-03-23T06:22:11.829Z,24.90
2019-03-23T06:24:45.912Z,24.80
2019-03-23T06:27:18.826Z,24.80
2019-03-23T06:29:52.469Z,24.80
2019-03-23T06:32:25.565Z,24.80
2019-03-23T06:34:59.203Z,24.80
2019-03-23T06:37:33.832Z,24.80
2019-03-23T06:40:08.076Z,24.80
2019-03-23T06:42:42.635Z,24.80
2019-03-23T06:45:18.021Z,24.70
2019-03-23T06:47:51.265Z,24.60
2019-03-23T06:50:24.946Z,24.70
2019-03-23T06:52:58.101Z,24.70
2019-03-23T06:55:31.592Z,24.70
2019-03-23T06:58:05.301Z,24.70
2019-03-23T07:00:38.582Z,24.70
2019-03-23T07:03:13.380Z,24.70
2019-03-23T07:05:51.583Z,24.70
2019-03-23T07:08:31.826Z,24.60
2019-03-23T07:11:07.856Z,24.60
2019-03-23T07:13:44.326Z,24.60
2019-03-23T07:16:20.541Z,24.60
2019-03-23T07:18:52.861Z,24.50
2019-03-23T07:21:26.342Z,24.50
2019-03-23T07:24:00.277Z,24.40
2019-03-23T07:26:39.962Z,24.40
2019-03-23T07:29:13.205Z,24.40
2019-03-23T07:31:46.537Z,24.30
2019-03-23T07:34:20.467Z,24.30
2019-03-23T07:36:54.531Z,24.20
2019-03-23T07:39:30.255Z,24.20
2019-03-23T07:42:02.239Z,24.20
2019-03-23T07:44:38.268Z,24.20
2019-03-23T07:47:11.680Z,24.20
2019-03-23T07:49:45.094Z,24.20
2019-03-23T07:52:18.497Z,24.20
2019-03-23T07:54:51.530Z,24.10
2019-03-23T07:57:24.724Z,24.10
2019-03-23T07:59:57.597Z,24.10
2019-03-23T08:02:32.326Z,24.10
2019-03-23T08:05:05.379Z,24.10
2019-03-23T08:07:38.641Z,24.10
2019-03-23T08:10:11.882Z,24.10
2019-03-23T08:12:45.476Z,24.00
2019-03-23T08:15:19.040Z,24.00
2019-03-23T08:17:52.527Z,24.00
2019-03-23T08:20:26.489Z,24.00
2019-03-23T08:23:00.449Z,24.00
2019-03-23T08:25:34.783Z,23.90
2019-03-23T08:28:07.975Z,24.00
2019-03-23T08:30:41.078Z,24.00
2019-03-23T08:33:14.727Z,24.00
2019-03-23T08:35:47.735Z,23.90
2019-03-23T08:38:21.212Z,23.90
2019-03-23T08:40:54.332Z,23.90
2019-03-23T08:43:29.241Z,23.80
2019-03-23T08:46:02.289Z,23.70
2019-03-23T08:48:36.340Z,23.60
2019-03-23T08:51:09.611Z,23.70
2019-03-23T08:53:42.767Z,23.60
2019-03-23T08:56:15.837Z,23.60
2019-03-23T08:58:47.354Z,23.60
2019-03-23T09:01:20.943Z,23.60
2019-03-23T09:03:54.047Z,23.60
2019-03-23T09:06:27.817Z,23.60
2019-03-23T09:09:01.465Z,23.60
2019-03-23T09:11:34.256Z,23.60
2019-03-23T09:14:10.163Z,23.50
2019-03-23T09:16:41.891Z,23.50
2019-03-23T09:19:15.116Z,23.50
2019-03-23T09:21:49.022Z,23.50
2019-03-23T09:24:23.296Z,23.50
2019-03-23T09:26:58.356Z,23.40
2019-03-23T09:29:30.827Z,23.50
2019-03-23T09:32:05.669Z,23.40
2019-03-23T09:34:39.275Z,23.40
2019-03-23T09:37:15.212Z,23.40
2019-03-23T09:39:49.998Z,23.40
2019-03-23T09:42:26.205Z,23.30
2019-03-23T09:44:59.810Z,23.40
2019-03-23T09:47:33.465Z,23.30
2019-03-23T09:50:07.616Z,23.40
2019-03-23T09:52:40.355Z,23.30
2019-03-23T09:55:15.589Z,23.30
2019-03-23T09:57:49.368Z,23.30
2019-03-23T10:00:22.626Z,23.20
2019-03-23T10:02:55.846Z,23.20
2019-03-23T10:05:29.295Z,23.20
2019-03-23T10:08:02.948Z,23.20
2019-03-23T10:10:36.474Z,23.20
2019-03-23T10:13:10.087Z,23.30
2019-03-23T10:15:44.366Z,23.30
2019-03-23T10:18:18.495Z,23.30
2019-03-23T10:20:52.202Z,23.30
2019-03-23T10:23:30.599Z,23.30
2019-03-23T10:26:04.258Z,23.30
2019-03-23T10:28:37.734Z,23.30
2019-03-23T10:31:12.071Z,23.30
2019-03-23T10:33:45.926Z,23.30
2019-03-23T10:36:21.165Z,23.30
2019-03-23T10:38:54.505Z,23.30
2019-03-23T10:41:49.027Z,23.20
2019-03-23T10:44:22.074Z,23.30
2019-03-23T10:46:55.552Z,23.20
2019-03-23T10:49:28.798Z,23.20
2019-03-23T10:52:02.268Z,23.20
2019-03-23T10:54:35.343Z,23.20
2019-03-23T10:57:08.687Z,23.20
2019-03-23T10:59:42.839Z,23.20
2019-03-23T11:02:16.165Z,23.10
2019-03-23T11:04:49.357Z,23.10
2019-03-23T11:07:23.316Z,23.10
2019-03-23T11:09:56.504Z,23.00
2019-03-23T11:12:29.901Z,23.00
2019-03-23T11:15:04.606Z,23.00
2019-03-23T11:17:40.070Z,22.90
2019-03-23T11:20:14.612Z,22.90
2019-03-23T11:22:48.685Z,22.90
2019-03-23T11:25:21.888Z,22.90
2019-03-23T11:27:56.082Z,22.80
2019-03-23T11:30:33.402Z,22.80
2019-03-23T11:33:09.330Z,22.70
2019-03-23T11:35:41.989Z,22.70
2019-03-23T11:38:16.911Z,22.70
2019-03-23T11:40:54.029Z,22.70
2019-03-23T11:43:26.073Z,22.70
2019-03-23T11:46:01.470Z,22.80
2019-03-23T11:48:35.111Z,22.80
2019-03-23T11:51:09.723Z,22.80
2019-03-23T11:53:45.277Z,22.80
2019-03-23T11:56:21.934Z,22.80
2019-03-23T11:58:56.602Z,22.80
2019-03-23T12:01:31.591Z,22.80
2019-03-23T12:04:05.193Z,22.80
2019-03-23T12:06:40.482Z,22.80
2019-03-23T12:09:13.951Z,22.80
2019-03-23T12:11:46.915Z,22.80
2019-03-23T12:14:22.525Z,22.80
2019-03-23T12:16:55.723Z,22.80
2019-03-23T12:19:29.928Z,22.80
2019-03-23T12:22:03.955Z,22.80
2019-03-23T12:24:49.165Z,22.70
2019-03-23T12:27:24.810Z,22.70
2019-03-23T12:30:06.737Z,22.80
2019-03-23T12:32:33.025Z,22.80
2019-03-23T12:35:09.970Z,22.80
2019-03-23T12:37:44.071Z,22.80
2019-03-23T12:40:20.170Z,22.80
2019-03-23T12:42:54.492Z,22.80
2019-03-23T12:45:28.113Z,22.80
2019-03-23T12:48:03.218Z,22.80
2019-03-23T12:50:36.684Z,22.80
2019-03-23T12:53:10.024Z,22.80
2019-03-23T12:55:44.569Z,22.80
2019-03-23T12:58:18.731Z,22.80
2019-03-23T13:00:52.196Z,22.70
2019-03-23T13:03:25.343Z,22.80
2019-03-23T13:05:58.691Z,22.80
2019-03-23T13:08:31.923Z,22.80
2019-03-23T13:11:06.156Z,22.80
2019-03-23T13:13:39.263Z,22.70
2019-03-23T13:16:12.581Z,22.70
2019-03-23T13:18:45.564Z,22.70
2019-03-23T13:21:19.216Z,22.70
2019-03-23T13:23:54.090Z,22.70
2019-03-23T13:26:27.572Z,22.60
2019-03-23T13:29:00.646Z,22.60
2019-03-23T13:31:35.447Z,22.60
2019-03-23T13:34:08.507Z,22.60
2019-03-23T13:36:41.706Z,22.60
2019-03-23T13:39:16.901Z,22.60
2019-03-23T13:41:53.582Z,22.60
2019-03-23T13:44:27.062Z,22.50
2019-03-23T13:47:09.225Z,22.50
2019-03-23T13:49:42.345Z,22.50
2019-03-23T13:52:15.756Z,22.50
2019-03-23T13:54:48.903Z,22.40
2019-03-23T13:57:21.961Z,22.40
2019-03-23T13:59:55.300Z,22.40
2019-03-23T14:02:28.720Z,22.40
2019-03-23T14:05:02.289Z,22.30
2019-03-23T14:07:35.488Z,22.30
2019-03-23T14:10:09.241Z,22.30
2019-03-23T14:12:43.435Z,22.30
2019-03-23T14:15:16.281Z,22.20
2019-03-23T14:17:49.764Z,22.20
2019-03-23T14:20:22.916Z,22.20
2019-03-23T14:23:02.753Z,22.10
2019-03-23T14:25:31.275Z,22.10
2019-03-23T14:28:08.192Z,22.10
2019-03-23T14:30:41.840Z,22.10
2019-03-23T14:33:15.660Z,22.00
2019-03-23T14:35:48.837Z,22.00
2019-03-23T14:38:22.049Z,22.00
2019-03-23T14:40:55.151Z,22.00
2019-03-23T14:43:28.905Z,22.00
2019-03-23T14:46:02.095Z,22.00
2019-03-23T14:48:35.458Z,22.00
2019-03-23T14:51:08.670Z,22.00
2019-03-23T14:53:42.874Z,22.00
2019-03-23T14:56:19.599Z,22.00
2019-03-23T14:58:52.825Z,22.00
2019-03-23T15:01:26.344Z,21.90
2019-03-23T15:04:00.002Z,21.90
2019-03-23T15:06:33.055Z,21.90
2019-03-23T15:09:06.893Z,21.90
2019-03-23T15:11:39.894Z,21.90
2019-03-23T15:14:14.395Z,21.80
2019-03-23T15:16:47.568Z,21.80
2019-03-23T15:19:20.932Z,21.80
2019-03-23T15:21:54.459Z,21.80
2019-03-23T15:24:27.713Z,21.80
2019-03-23T15:27:00.767Z,21.70
2019-03-23T15:29:34.351Z,21.70
2019-03-23T15:32:07.345Z,21.80
2019-03-23T15:34:40.677Z,21.70
2019-03-23T15:37:14.392Z,21.70
2019-03-23T15:39:47.783Z,21.70
2019-03-23T15:42:24.772Z,21.70
2019-03-23T15:44:56.045Z,21.70
2019-03-23T15:47:30.203Z,21.70
2019-03-23T15:50:03.933Z,21.80
2019-03-23T15:52:36.953Z,21.70
2019-03-23T15:55:10.066Z,21.70
2019-03-23T15:57:43.178Z,21.70
2019-03-23T16:00:16.428Z,21.70
2019-03-23T16:02:49.727Z,21.70
2019-03-23T16:05:22.949Z,21.70
2019-03-23T16:07:55.910Z,21.60
2019-03-23T16:10:29.657Z,21.60
2019-03-23T16:13:02.733Z,21.60
2019-03-23T16:15:35.778Z,21.60
2019-03-23T16:18:08.862Z,21.60
2019-03-23T16:20:42.448Z,21.60
2019-03-23T16:23:15.405Z,21.60
2019-03-23T16:25:49.085Z,21.70
2019-03-23T16:28:21.995Z,21.70
2019-03-23T16:30:55.071Z,21.70
2019-03-23T16:33:28.065Z,21.70
2019-03-23T16:36:03.491Z,21.80
2019-03-23T16:38:35.968Z,21.80
2019-03-23T16:41:09.241Z,21.80
2019-03-23T16:43:41.871Z,21.80
2019-03-23T16:46:15.738Z,21.80
2019-03-23T16:48:48.832Z,21.80
2019-03-23T16:51:22.132Z,21.70
2019-03-23T16:53:54.876Z,21.60
2019-03-23T16:56:28.831Z,21.70
2019-03-23T16:59:01.888Z,21.70
2019-03-23T17:01:35.194Z,21.80
2019-03-23T17:04:08.328Z,21.80
2019-03-23T17:06:46.344Z,21.70
2019-03-23T17:09:15.603Z,21.80
2019-03-23T17:11:48.962Z,21.70
2019-03-23T17:14:22.115Z,21.60
2019-03-23T17:16:55.488Z,21.60
2019-03-23T17:19:28.317Z,21.70
2019-03-23T17:22:01.679Z,21.70
2019-03-23T17:24:34.665Z,21.80
2019-03-23T17:27:07.917Z,21.70
2019-03-23T17:29:41.419Z,21.80
2019-03-23T17:32:14.509Z,21.70
2019-03-23T17:34:47.562Z,21.80
2019-03-23T17:37:20.967Z,21.80
2019-03-23T17:39:53.812Z,21.80
2019-03-23T17:42:26.950Z,21.80
2019-03-23T17:45:00.015Z,21.80
2019-03-23T17:47:33.180Z,21.80
2019-03-23T17:50:07.357Z,21.80
2019-03-23T17:52:40.496Z,21.80
2019-03-23T17:55:13.493Z,21.80
2019-03-23T17:57:46.759Z,21.80
2019-03-23T18:00:19.985Z,21.80
2019-03-23T18:02:53.464Z,21.80
2019-03-23T18:05:26.822Z,21.70
2019-03-23T18:08:00.293Z,21.70
2019-03-23T18:10:33.390Z,21.70
2019-03-23T18:13:15.949Z,21.70
2019-03-23T18:15:40.516Z,21.70
2019-03-23T18:18:13.653Z,21.70
2019-03-23T18:20:46.553Z,21.70
2019-03-23T18:23:20.160Z,21.80
2019-03-23T18:25:53.063Z,21.80
2019-03-23T18:28:26.577Z,21.80
2019-03-23T18:30:59.620Z,21.80
2019-03-23T18:33:33.593Z,21.80
2019-03-23T18:36:06.646Z,21.80
2019-03-23T18:38:40.329Z,21.80
2019-03-23T18:41:13.271Z,21.80
2019-03-23T18:43:46.685Z,21.80
2019-03-23T18:46:20.054Z,21.80
2019-03-23T18:48:53.314Z,21.80
2019-03-23T18:51:26.550Z,21.80
2019-03-23T18:53:59.823Z,21.80
2019-03-23T18:56:32.910Z,21.80
2019-03-23T18:59:06.487Z,21.80
2019-03-23T19:01:39.398Z,21.80
2019-03-23T19:04:12.620Z,21.80
2019-03-23T19:06:45.664Z,21.80
2019-03-23T19:09:18.844Z,21.80
2019-03-23T19:11:51.732Z,21.80
2019-03-23T19:14:25.671Z,21.80
2019-03-23T19:16:58.845Z,21.80
2019-03-23T19:19:32.137Z,21.80
2019-03-23T19:22:05.041Z,21.80
2019-03-23T19:24:39.025Z,21.80
2019-03-23T19:27:12.622Z,21.80
2019-03-23T19:29:46.175Z,21.80
2019-03-23T19:32:19.180Z,21.70
2019-03-23T19:34:52.587Z,21.70
2019-03-23T19:37:25.715Z,21.70
2019-03-23T19:39:58.825Z,21.70
2019-03-23T19:42:31.781Z,21.70
2019-03-23T19:45:05.400Z,21.70
2019-03-23T19:47:38.779Z,21.70
2019-03-23T19:50:12.230Z,21.70
2019-03-23T19:52:47.213Z,21.70
2019-03-23T19:55:20.520Z,21.70
2019-03-23T19:57:54.743Z,21.70
2019-03-23T20:00:29.334Z,21.70
2019-03-23T20:03:02.260Z,21.70
2019-03-23T20:05:35.564Z,21.80
2019-03-23T20:08:08.535Z,21.80
2019-03-23T20:10:42.074Z,21.80
2019-03-23T20:13:15.260Z,21.80
2019-03-23T20:15:51.714Z,21.80
2019-03-23T20:18:24.724Z,21.80
2019-03-23T20:21:00.784Z,21.80
2019-03-23T20:23:35.745Z,21.80
2019-03-23T20:26:11.838Z,21.80
2019-03-23T20:28:45.041Z,21.80
2019-03-23T20:31:18.383Z,21.80
2019-03-23T20:33:51.396Z,21.80
2019-03-23T20:36:26.199Z,21.80
2019-03-23T20:38:59.250Z,21.90
2019-03-23T20:41:32.627Z,21.90
2019-03-23T20:44:09.406Z,21.90
2019-03-23T20:46:40.428Z,21.90
2019-03-23T20:49:13.335Z,22.00
2019-03-23T20:51:46.994Z,22.00
2019-03-23T20:54:19.955Z,22.00
2019-03-23T20:56:53.139Z,22.00
2019-03-23T20:59:28.649Z,22.00
2019-03-23T21:02:01.939Z,22.00
2019-03-23T21:04:35.120Z,22.00
2019-03-23T21:07:09.251Z,22.10
2019-03-23T21:09:41.906Z,22.00
2019-03-23T21:12:15.293Z,22.10
2019-03-23T21:14:48.264Z,22.00
2019-03-23T21:17:21.543Z,22.10
2019-03-23T21:19:54.672Z,22.10
2019-03-23T21:22:27.992Z,22.10
2019-03-23T21:25:04.521Z,22.10
2019-03-23T21:27:39.822Z,22.20
2019-03-23T21:30:15.055Z,22.10
2019-03-23T21:32:48.210Z,22.20
2019-03-23T21:35:21.714Z,22.30
2019-03-23T21:37:55.158Z,22.30
2019-03-23T21:40:28.181Z,22.40
2019-03-23T21:43:01.730Z,22.50
2019-03-23T21:45:34.559Z,22.60
2019-03-23T21:48:08.644Z,22.70
2019-03-23T21:50:47.403Z,22.80
2019-03-23T21:53:16.082Z,22.90
2019-03-23T21:55:48.947Z,23.00
2019-03-23T21:58:22.301Z,23.20
2019-03-23T22:00:55.410Z,23.40
2019-03-23T22:03:29.727Z,23.70
2019-03-23T22:06:03.552Z,24.20
2019-03-23T22:08:38.700Z,25.00
2019-03-23T22:11:11.589Z,25.60
2019-03-23T22:13:45.385Z,25.60
2019-03-23T22:16:18.831Z,25.60
2019-03-23T22:18:55.309Z,25.50
2019-03-23T22:21:27.436Z,25.60
2019-03-23T22:24:01.388Z,25.70
2019-03-23T22:26:34.552Z,25.60
2019-03-23T22:29:08.071Z,25.60
2019-03-23T22:31:41.075Z,25.70
2019-03-23T22:34:14.461Z,25.70
2019-03-23T22:36:47.581Z,25.70
2019-03-23T22:39:21.092Z,25.60
2019-03-23T22:41:54.041Z,25.60
2019-03-23T22:44:27.626Z,25.70
2019-03-23T22:47:00.657Z,25.70
2019-03-23T22:49:34.150Z,25.70
2019-03-23T22:52:07.261Z,25.70
2019-03-23T22:54:40.651Z,25.80
2019-03-23T22:57:14.693Z,25.90
2019-03-23T22:59:47.890Z,25.90
2019-03-23T23:02:21.378Z,25.90
2019-03-23T23:04:54.748Z,26.00
2019-03-23T23:07:28.097Z,26.10
2019-03-23T23:10:01.313Z,26.20
2019-03-23T23:12:34.958Z,26.30
2019-03-23T23:15:09.407Z,26.40
2019-03-23T23:17:42.854Z,26.50
2019-03-23T23:20:16.605Z,26.60
2019-03-23T23:22:49.678Z,26.70
2019-03-23T23:25:23.173Z,26.80
2019-03-23T23:27:58.006Z,26.70
2019-03-23T23:30:31.639Z,26.90
2019-03-23T23:33:04.636Z,26.90
2019-03-23T23:35:37.879Z,27.00
2019-03-23T23:38:10.803Z,27.00
2019-03-23T23:40:44.594Z,27.00
2019-03-23T23:43:17.732Z,27.20
2019-03-23T23:45:50.848Z,27.20
2019-03-23T23:48:24.502Z,27.30
2019-03-23T23:50:57.647Z,27.30
2019-03-23T23:53:33.982Z,27.50
2019-03-23T23:56:07.709Z,27.60
2019-03-23T23:58:44.111Z,27.60
